Time;durP1;ratioP1;P1;durP2;ratioP2;P2;SDS_P1;SDS_P2;PMS_P1;PMS_P2;Temp;Humidity;BMP_temperature;BMP_pressure;BME280_temperature;BME280_humidity;BME280_pressure;Samples;Min_cycle;Max_cycle;Signal;HPM_P1;HPM_P2
2022/04/14 00:00:21;;;;;;;9.50;7.72;;;15.70;99.90;;;;;;4935342;29;20176;-71
2022/04/14 00:02:47;;;;;;;11.13;7.90;;;15.70;99.90;;;;;;4935282;29;20581;-71
2022/04/14 00:05:12;;;;;;;10.88;7.45;;;15.70;99.90;;;;;;4951533;28;20284;-70
2022/04/14 00:07:39;;;;;;;14.43;7.57;;;15.70;99.90;;;;;;4955467;28;20708;-71
2022/04/14 00:10:05;;;;;;;10.68;7.63;;;15.60;99.90;;;;;;4955291;28;20202;-71
2022/04/14 00:12:30;;;;;;;9.98;7.90;;;15.60;99.90;;;;;;4936854;29;20548;-71
2022/04/14 00:14:56;;;;;;;9.95;8.40;;;15.60;99.90;;;;;;4955761;29;20206;-70
2022/04/14 00:17:21;;;;;;;13.82;8.52;;;15.60;99.90;;;;;;4955321;28;20215;-70
2022/04/14 00:19:47;;;;;;;12.13;8.15;;;15.50;99.90;;;;;;4954957;29;20202;-71
2022/04/14 00:22:12;;;;;;;14.07;8.13;;;15.50;99.90;;;;;;4935148;29;20211;-71
2022/04/14 00:24:38;;;;;;;12.63;8.30;;;15.50;99.90;;;;;;4954624;29;20222;-71
2022/04/14 00:27:03;;;;;;;11.00;8.32;;;15.50;99.90;;;;;;4934965;29;20242;-70
2022/04/14 00:29:29;;;;;;;10.88;8.10;;;15.40;99.90;;;;;;4952231;28;20213;-70
2022/04/14 00:31:55;;;;;;;10.98;8.25;;;15.40;99.90;;;;;;4955257;29;20692;-71
2022/04/14 00:34:20;;;;;;;16.33;8.70;;;15.40;99.90;;;;;;4934918;29;20221;-71
2022/04/14 00:36:45;;;;;;;12.75;8.50;;;15.30;99.90;;;;;;4934997;29;20641;-70
2022/04/14 00:39:11;;;;;;;15.43;8.65;;;15.30;99.90;;;;;;4959169;29;20211;-71
2022/04/14 00:41:37;;;;;;;12.52;7.88;;;15.20;99.90;;;;;;4944373;29;20216;-71
2022/04/14 00:44:03;;;;;;;12.07;8.60;;;15.20;99.90;;;;;;4955790;29;20218;-71
2022/04/14 00:46:29;;;;;;;11.73;8.68;;;15.20;99.90;;;;;;4954832;28;20680;-71
2022/04/14 00:48:54;;;;;;;11.55;8.73;;;15.20;99.90;;;;;;4954081;28;20295;-72
2022/04/14 00:51:20;;;;;;;12.60;8.90;;;15.30;99.90;;;;;;4935342;29;20258;-71
2022/04/14 00:53:46;;;;;;;13.73;9.68;;;15.20;99.90;;;;;;4946950;29;20210;-71
2022/04/14 00:56:11;;;;;;;14.75;9.52;;;15.20;99.90;;;;;;4954940;29;20242;-71
2022/04/14 00:58:37;;;;;;;13.48;8.75;;;15.20;99.90;;;;;;4953923;28;20261;-70
2022/04/14 01:01:05;;;;;;;13.30;8.80;;;15.20;99.90;;;;;;4934481;29;20184;-71
2022/04/14 01:03:32;;;;;;;11.63;8.60;;;15.20;99.90;;;;;;4935965;29;20234;-71
2022/04/14 01:05:58;;;;;;;11.82;8.70;;;15.10;99.90;;;;;;4955104;28;20597;-71
2022/04/14 01:08:26;;;;;;;13.38;9.25;;;15.10;99.90;;;;;;4953807;28;20823;-71
2022/04/14 01:10:53;;;;;;;11.15;8.93;;;15.10;99.90;;;;;;4934184;29;20362;-71
2022/04/14 01:13:19;;;;;;;12.38;9.35;;;15.00;99.90;;;;;;4951087;29;20573;-71
2022/04/14 01:15:45;;;;;;;11.50;8.95;;;15.00;99.90;;;;;;4937598;29;20186;-70
2022/04/14 01:18:12;;;;;;;14.57;8.73;;;15.00;99.90;;;;;;4953641;28;20218;-70
2022/04/14 01:20:39;;;;;;;12.68;8.30;;;15.00;99.90;;;;;;4936147;29;20212;-71
2022/04/14 01:23:08;;;;;;;14.32;8.05;;;15.00;99.90;;;;;;4954222;28;20725;-71
2022/04/14 01:25:35;;;;;;;14.32;8.85;;;15.00;99.90;;;;;;4954322;29;20217;-71
2022/04/14 01:28:02;;;;;;;13.65;9.02;;;15.00;99.90;;;;;;4953464;28;20283;-70
2022/04/14 01:30:28;;;;;;;13.80;8.43;;;15.00;99.90;;;;;;4954584;29;20621;-71
2022/04/14 01:32:53;;;;;;;13.25;9.60;;;14.90;99.90;;;;;;4954294;29;20321;-71
2022/04/14 01:35:19;;;;;;;15.27;9.48;;;15.00;99.90;;;;;;4954442;28;20259;-71
2022/04/14 01:37:44;;;;;;;11.73;8.73;;;14.90;99.90;;;;;;4953527;28;20215;-70
2022/04/14 01:40:10;;;;;;;12.70;8.55;;;14.90;99.90;;;;;;4953705;28;20190;-71
2022/04/14 01:42:36;;;;;;;12.57;8.50;;;14.80;99.90;;;;;;4954388;29;20191;-70
2022/04/14 01:45:02;;;;;;;13.95;9.57;;;14.80;99.90;;;;;;4953958;29;20269;-70
2022/04/14 01:47:28;;;;;;;12.40;8.98;;;14.80;99.90;;;;;;4953805;28;20297;-70
2022/04/14 01:49:53;;;;;;;12.70;9.27;;;14.80;99.90;;;;;;4953257;29;20342;-70
2022/04/14 01:52:19;;;;;;;13.18;9.10;;;14.70;99.90;;;;;;4933279;29;20215;-71
2022/04/14 01:54:44;;;;;;;13.40;9.07;;;14.70;99.90;;;;;;4954015;29;20653;-70
2022/04/14 01:57:10;;;;;;;13.82;8.63;;;14.60;99.90;;;;;;4933244;29;20570;-70
2022/04/14 01:59:35;;;;;;;11.52;8.80;;;14.60;99.90;;;;;;4950839;28;20219;-70
2022/04/14 02:02:01;;;;;;;15.38;9.25;;;14.60;99.90;;;;;;4953726;29;20214;-70
2022/04/14 02:04:26;;;;;;;17.08;9.15;;;14.60;99.90;;;;;;4933795;29;20628;-70
2022/04/14 02:06:52;;;;;;;11.93;9.20;;;14.50;99.90;;;;;;4953849;28;20210;-72
2022/04/14 02:09:17;;;;;;;13.25;8.35;;;14.50;99.90;;;;;;4932719;29;20235;-71
2022/04/14 02:11:42;;;;;;;17.20;9.18;;;14.50;99.90;;;;;;4953025;28;20206;-71
2022/04/14 02:14:08;;;;;;;14.45;8.95;;;14.40;99.90;;;;;;4933011;29;20302;-71
2022/04/14 02:16:36;;;;;;;13.40;9.32;;;14.40;99.90;;;;;;4934536;29;20225;-71
2022/04/14 02:19:02;;;;;;;12.00;8.93;;;14.40;99.90;;;;;;4930417;29;20572;-71
2022/04/14 02:21:27;;;;;;;14.50;9.23;;;14.30;99.90;;;;;;4970370;28;20178;-70
2022/04/14 02:23:52;;;;;;;13.13;9.23;;;14.40;99.90;;;;;;4972396;28;20305;-70
2022/04/14 02:26:19;;;;;;;11.65;8.35;;;14.40;99.90;;;;;;4972280;28;20210;-70
2022/04/14 02:28:45;;;;;;;12.77;8.75;;;14.30;99.90;;;;;;4971364;28;20206;-70
2022/04/14 02:31:10;;;;;;;15.02;9.45;;;14.30;99.90;;;;;;4972633;28;20175;-71
2022/04/14 02:33:36;;;;;;;13.38;8.55;;;14.20;99.90;;;;;;4972398;28;20214;-71
2022/04/14 02:36:01;;;;;;;15.98;9.38;;;14.20;99.90;;;;;;4938614;28;20219;-70
2022/04/14 02:38:26;;;;;;;13.95;9.60;;;14.20;99.90;;;;;;4966526;28;20214;-70
2022/04/14 02:40:52;;;;;;;14.05;8.90;;;14.20;99.90;;;;;;4972359;28;20214;-71
2022/04/14 02:43:17;;;;;;;12.93;8.63;;;14.30;99.90;;;;;;4972227;28;20218;-70
2022/04/14 02:45:43;;;;;;;15.70;10.10;;;14.20;99.90;;;;;;4939309;28;20181;-70
2022/04/14 02:48:08;;;;;;;14.77;9.43;;;14.20;99.90;;;;;;4966601;28;21053;-70
2022/04/14 02:50:34;;;;;;;12.00;9.05;;;14.20;99.90;;;;;;4970458;28;20253;-70
2022/04/14 02:52:59;;;;;;;11.95;9.50;;;14.20;99.90;;;;;;4972068;28;20641;-71
2022/04/14 02:55:25;;;;;;;15.75;9.95;;;14.10;99.90;;;;;;4972121;28;20277;-71
2022/04/14 02:57:50;;;;;;;15.98;9.98;;;14.10;99.90;;;;;;4972398;28;20780;-71
2022/04/14 03:00:17;;;;;;;14.98;10.70;;;14.20;99.90;;;;;;4971645;28;20210;-71
2022/04/14 03:02:42;;;;;;;16.63;11.27;;;14.20;99.90;;;;;;4971828;28;20595;-71
2022/04/14 03:05:09;;;;;;;15.18;10.57;;;14.10;99.90;;;;;;4971953;28;20222;-71
2022/04/14 03:07:35;;;;;;;13.82;10.35;;;14.10;99.90;;;;;;4971550;28;20313;-71
2022/04/14 03:10:01;;;;;;;16.63;10.90;;;14.10;99.90;;;;;;4937475;29;20266;-71
2022/04/14 03:12:39;;;;;;;16.60;11.77;;;14.00;99.90;;;;;;4970030;28;20186;-71
2022/04/14 03:15:04;;;;;;;18.77;10.93;;;14.00;99.90;;;;;;4975861;28;20205;-70
2022/04/14 03:17:30;;;;;;;14.68;11.27;;;13.90;99.90;;;;;;4940549;28;20600;-71
2022/04/14 03:19:55;;;;;;;15.13;10.48;;;13.80;99.90;;;;;;4969028;28;20222;-71
2022/04/14 03:22:21;;;;;;;17.20;11.47;;;13.70;99.90;;;;;;4939228;28;20266;-70
2022/04/14 03:24:46;;;;;;;15.02;11.52;;;13.70;99.90;;;;;;4944440;29;20238;-71
2022/04/14 03:27:12;;;;;;;19.17;11.68;;;13.50;99.90;;;;;;4936314;29;20207;-72
2022/04/14 03:29:37;;;;;;;17.85;12.30;;;13.40;99.90;;;;;;4948166;28;20222;-72
2022/04/14 03:32:03;;;;;;;17.30;10.83;;;13.40;99.90;;;;;;4941701;29;20267;-71
2022/04/14 03:34:28;;;;;;;16.90;11.67;;;13.40;99.90;;;;;;4947914;28;20692;-70
2022/04/14 03:36:54;;;;;;;14.17;10.73;;;13.40;99.90;;;;;;4942784;29;20642;-71
2022/04/14 03:39:19;;;;;;;15.40;11.53;;;13.20;99.90;;;;;;4968320;28;20282;-71
2022/04/14 03:41:45;;;;;;;15.23;11.87;;;13.20;99.90;;;;;;4974949;28;20269;-72
2022/04/14 03:44:10;;;;;;;20.93;11.87;;;13.20;99.90;;;;;;4975292;28;20221;-72
2022/04/14 03:46:35;;;;;;;17.57;12.33;;;13.20;99.90;;;;;;4940723;28;20224;-71
2022/04/14 03:49:01;;;;;;;17.60;10.73;;;13.10;99.90;;;;;;4939301;28;20295;-71
2022/04/14 03:51:26;;;;;;;16.27;11.37;;;13.10;99.90;;;;;;4970877;28;20190;-70
2022/04/14 03:53:52;;;;;;;14.20;10.87;;;13.20;99.90;;;;;;4942630;28;20601;-70
2022/04/14 03:56:17;;;;;;;14.73;10.20;;;13.20;99.90;;;;;;4967576;28;20214;-70
2022/04/14 03:58:43;;;;;;;15.47;10.73;;;13.20;99.90;;;;;;4974197;28;20245;-70
2022/04/14 04:01:08;;;;;;;15.83;11.03;;;13.10;99.90;;;;;;4975010;28;20680;-71
2022/04/14 04:03:34;;;;;;;14.47;10.00;;;13.10;99.90;;;;;;4975207;28;20330;-71
2022/04/14 04:05:59;;;;;;;15.03;10.33;;;13.20;99.90;;;;;;4941396;28;20214;-71
2022/04/14 04:08:25;;;;;;;14.53;9.90;;;13.20;99.90;;;;;;4969461;28;20701;-71
2022/04/14 04:10:50;;;;;;;12.43;9.93;;;13.10;99.90;;;;;;4974528;28;20214;-72
2022/04/14 04:13:16;;;;;;;16.07;9.77;;;13.10;99.90;;;;;;4939057;29;20274;-72
2022/04/14 04:15:41;;;;;;;13.67;10.20;;;13.10;99.90;;;;;;4973779;28;20599;-72
2022/04/14 04:18:07;;;;;;;20.63;11.10;;;13.10;99.90;;;;;;4969452;28;20215;-71
2022/04/14 04:20:33;;;;;;;13.80;9.23;;;13.20;99.90;;;;;;4972638;28;20301;-71
2022/04/14 04:22:58;;;;;;;13.30;9.93;;;13.00;99.90;;;;;;4974206;28;20214;-72
2022/04/14 04:25:24;;;;;;;16.00;9.97;;;13.10;99.90;;;;;;4974248;28;20230;-71
2022/04/14 04:27:49;;;;;;;14.20;9.60;;;13.10;99.90;;;;;;4954976;28;20294;-71
2022/04/14 04:30:15;;;;;;;15.83;9.97;;;13.10;99.90;;;;;;4954840;28;20221;-73
2022/04/14 04:32:41;;;;;;;11.70;9.00;;;13.10;99.90;;;;;;4982525;28;20245;-72
2022/04/14 04:35:07;;;;;;;14.73;9.97;;;13.20;99.90;;;;;;4982331;28;20218;-72
2022/04/14 04:37:33;;;;;;;15.80;10.20;;;13.10;99.90;;;;;;4957052;28;20269;-72
2022/04/14 04:39:59;;;;;;;17.93;9.93;;;13.20;99.90;;;;;;4956730;28;20206;-71
2022/04/14 04:42:24;;;;;;;19.37;12.27;;;13.20;99.90;;;;;;4974756;28;20584;-72
2022/04/14 04:44:50;;;;;;;14.50;9.93;;;13.30;99.90;;;;;;4974203;28;20221;-72
2022/04/14 04:47:16;;;;;;;14.00;10.10;;;13.40;99.90;;;;;;4956872;28;20346;-72
2022/04/14 04:49:42;;;;;;;14.50;9.93;;;13.40;99.90;;;;;;4973558;28;20232;-71
2022/04/14 04:52:07;;;;;;;14.23;9.63;;;13.50;99.90;;;;;;4974221;28;20187;-74
2022/04/14 04:54:33;;;;;;;15.23;9.48;;;13.70;99.90;;;;;;4965016;28;20183;-72
2022/04/14 04:56:58;;;;;;;14.10;9.57;;;13.80;99.90;;;;;;4955224;28;20203;-72
2022/04/14 04:59:24;;;;;;;15.95;9.45;;;13.80;99.90;;;;;;4953800;28;20215;-72
2022/04/14 05:01:49;;;;;;;14.30;9.48;;;13.80;99.90;;;;;;4949348;28;20237;-71
2022/04/14 05:04:15;;;;;;;12.02;8.93;;;13.80;99.90;;;;;;4956728;28;20571;-72
2022/04/14 05:06:40;;;;;;;13.75;9.13;;;13.80;99.90;;;;;;4957015;28;20198;-72
2022/04/14 05:09:06;;;;;;;14.07;9.23;;;13.90;99.90;;;;;;4955730;28;20232;-72
2022/04/14 05:11:32;;;;;;;13.05;8.73;;;14.10;99.90;;;;;;4973731;28;20305;-72
2022/04/14 05:13:58;;;;;;;11.63;8.40;;;14.00;99.90;;;;;;4973594;28;20206;-72
2022/04/14 05:16:24;;;;;;;12.88;9.27;;;14.10;99.90;;;;;;4973570;28;20218;-72
2022/04/14 05:18:50;;;;;;;12.55;8.48;;;14.00;99.90;;;;;;4973677;28;20256;-72
2022/04/14 05:21:15;;;;;;;12.27;8.88;;;14.10;99.90;;;;;;4956370;28;20209;-72
2022/04/14 05:23:41;;;;;;;13.65;9.02;;;14.00;99.90;;;;;;4973408;28;20222;-72
2022/04/14 05:26:06;;;;;;;9.98;7.75;;;14.00;99.90;;;;;;4970450;28;20215;-72
2022/04/14 05:28:32;;;;;;;11.68;8.23;;;14.20;99.90;;;;;;4953162;28;20223;-72
2022/04/14 05:30:57;;;;;;;14.13;8.48;;;14.40;99.90;;;;;;4954279;29;20242;-72
2022/04/14 05:33:23;;;;;;;12.10;8.25;;;14.60;99.90;;;;;;4954054;28;20175;-72
2022/04/14 05:35:48;;;;;;;15.07;8.18;;;14.70;99.90;;;;;;4948188;28;20210;-72
2022/04/14 05:38:14;;;;;;;12.05;8.60;;;14.80;99.90;;;;;;4972660;28;20208;-72
2022/04/14 05:40:45;;;;;;;11.75;7.75;;;14.90;99.90;;;;;;4973305;28;20212;-72
2022/04/14 05:43:17;;;;;;;19.25;10.52;;;15.00;99.90;;;;;;4973513;28;20800;-72
2022/04/14 05:45:49;;;;;;;11.38;7.50;;;15.10;99.90;;;;;;4959264;28;20197;-72
2022/04/14 05:48:16;;;;;;;8.20;6.43;;;15.30;99.90;;;;;;4956336;28;20607;-73
2022/04/14 05:50:45;;;;;;;9.55;7.18;;;15.50;99.90;;;;;;4974656;28;20334;-73
2022/04/14 05:53:11;;;;;;;12.10;7.25;;;15.80;99.90;;;;;;4974765;28;20276;-72
2022/04/14 05:55:38;;;;;;;13.75;7.80;;;15.90;99.90;;;;;;4956722;28;20676;-73
2022/04/14 05:58:04;;;;;;;13.70;8.80;;;16.10;99.90;;;;;;4954565;28;20195;-71
2022/04/14 06:00:34;;;;;;;10.68;7.50;;;16.00;99.90;;;;;;4955430;29;20187;-72
2022/04/14 06:03:00;;;;;;;11.55;7.88;;;16.00;99.90;;;;;;4951139;28;20202;-72
2022/04/14 06:05:30;;;;;;;13.35;8.07;;;16.10;99.90;;;;;;4973974;28;20222;-71
2022/04/14 06:07:56;;;;;;;10.27;7.60;;;16.10;99.90;;;;;;4956207;28;20218;-72
2022/04/14 06:10:26;;;;;;;13.60;7.32;;;16.30;99.90;;;;;;4973624;28;20222;-72
2022/04/14 06:12:51;;;;;;;11.32;7.50;;;16.20;99.90;;;;;;4974880;28;20282;-72
2022/04/14 06:15:17;;;;;;;9.75;7.35;;;16.40;99.90;;;;;;4973520;28;20683;-71
2022/04/14 06:17:43;;;;;;;13.68;8.30;;;16.50;99.90;;;;;;4955551;28;20214;-70
2022/04/14 06:20:10;;;;;;;14.95;7.82;;;16.50;99.90;;;;;;4972632;28;20207;-72
2022/04/14 06:22:37;;;;;;;12.55;8.05;;;16.90;99.90;;;;;;4972512;28;20218;-72
2022/04/14 06:25:03;;;;;;;15.88;8.23;;;17.00;99.90;;;;;;4972354;28;20273;-71
2022/04/14 06:27:29;;;;;;;18.10;7.95;;;17.20;99.90;;;;;;4941608;29;20203;-72
2022/04/14 06:29:54;;;;;;;11.45;7.18;;;17.80;99.90;;;;;;4952637;28;20213;-72
2022/04/14 06:32:20;;;;;;;14.05;8.02;;;18.10;99.90;;;;;;4952721;28;20731;-72
2022/04/14 06:34:45;;;;;;;13.63;7.75;;;18.40;99.90;;;;;;4965700;28;20656;-72
2022/04/14 06:37:11;;;;;;;14.35;8.27;;;18.70;99.90;;;;;;4953041;28;20198;-72
2022/04/14 06:39:37;;;;;;;14.88;10.15;;;19.60;99.90;;;;;;4940884;29;20245;-72
2022/04/14 06:42:02;;;;;;;14.38;10.05;;;20.30;99.90;;;;;;4949043;28;20220;-72
2022/04/14 06:44:28;;;;;;;18.40;9.45;;;21.00;99.90;;;;;;4952236;28;20592;-72
2022/04/14 06:46:53;;;;;;;13.32;8.68;;;21.60;99.90;;;;;;4940903;28;20218;-73
2022/04/14 06:49:19;;;;;;;11.02;8.20;;;21.80;99.90;;;;;;4951857;28;20245;-72
2022/04/14 06:51:44;;;;;;;13.48;8.23;;;22.20;99.90;;;;;;4952510;28;20206;-73
2022/04/14 06:54:10;;;;;;;9.18;7.53;;;22.40;99.90;;;;;;4952966;28;20207;-73
2022/04/14 06:56:35;;;;;;;12.45;8.45;;;23.00;99.90;;;;;;4952584;28;20219;-73
2022/04/14 06:59:01;;;;;;;13.07;7.30;;;23.30;99.90;;;;;;4951995;28;20206;-73
2022/04/14 07:01:26;;;;;;;11.68;7.53;;;23.40;99.90;;;;;;4951789;28;20212;-72
2022/04/14 07:03:52;;;;;;;14.35;8.18;;;23.50;99.90;;;;;;4952709;29;20229;-72
2022/04/14 07:06:20;;;;;;;11.73;8.27;;;23.60;99.90;;;;;;4952756;29;20214;-80
2022/04/14 07:08:45;;;;;;;11.25;7.93;;;23.80;99.90;;;;;;4951724;28;20224;-78
2022/04/14 07:11:11;;;;;;;10.32;7.93;;;24.50;99.90;;;;;;4941115;29;20294;-71
2022/04/14 07:13:36;;;;;;;11.13;7.38;;;25.10;99.90;;;;;;4951890;29;20203;-73
2022/04/14 07:16:03;;;;;;;8.85;6.07;;;25.30;99.90;;;;;;4952308;28;20191;-73
2022/04/14 07:18:28;;;;;;;8.45;7.15;;;25.90;99.90;;;;;;4951762;28;20195;-73
2022/04/14 07:20:54;;;;;;;7.75;6.45;;;25.90;99.90;;;;;;4954474;28;20286;-73
2022/04/14 07:23:19;;;;;;;11.40;7.40;;;25.60;99.90;;;;;;4971761;28;20272;-73
2022/04/14 07:25:46;;;;;;;8.57;6.93;;;26.00;99.90;;;;;;4960952;28;20210;-73
2022/04/14 07:28:12;;;;;;;7.60;6.57;;;24.80;99.90;;;;;;4945386;28;20203;-72
2022/04/14 07:30:39;;;;;;;8.77;7.18;;;23.80;99.90;;;;;;4955354;28;20671;-73
2022/04/14 07:33:05;;;;;;;10.48;6.93;;;23.20;99.90;;;;;;4966459;28;20282;-73
2022/04/14 07:35:32;;;;;;;9.80;6.75;;;23.20;99.90;;;;;;4954381;28;20734;-72
2022/04/14 07:37:58;;;;;;;10.50;6.63;;;23.80;99.90;;;;;;4947736;28;20210;-73
2022/04/14 07:40:24;;;;;;;10.98;7.25;;;24.20;99.90;;;;;;4971406;28;20211;-72
2022/04/14 07:42:50;;;;;;;12.20;7.45;;;24.30;99.90;;;;;;4952595;29;20258;-73
2022/04/14 07:45:17;;;;;;;13.48;7.18;;;25.00;99.90;;;;;;4952187;29;20692;-73
2022/04/14 07:47:44;;;;;;;12.15;7.95;;;25.50;99.90;;;;;;4951623;28;20219;-72
2022/04/14 07:50:11;;;;;;;10.98;7.50;;;26.00;99.90;;;;;;4952213;29;20211;-72
2022/04/14 07:52:56;;;;;;;10.25;6.63;;;26.10;99.90;;;;;;4953044;28;20217;-73
2022/04/14 07:55:25;;;;;;;8.57;5.95;;;26.80;99.90;;;;;;4971600;28;20210;-73
2022/04/14 07:57:52;;;;;;;9.25;6.70;;;26.40;99.90;;;;;;4942780;28;20201;-73
2022/04/14 08:00:18;;;;;;;11.38;6.43;;;26.10;99.90;;;;;;4957626;28;20523;-73
2022/04/14 08:02:56;;;;;;;8.85;6.45;;;25.60;99.90;;;;;;4974687;28;20725;-73
2022/04/14 08:05:38;;;;;;;6.82;5.18;;;24.40;99.90;;;;;;4975024;28;20254;-72
2022/04/14 08:08:12;;;;;;;10.77;5.07;;;24.20;99.90;;;;;;4974142;28;20261;-72
2022/04/14 08:10:39;;;;;;;7.45;5.95;;;23.80;99.90;;;;;;4975048;28;20638;-73
2022/04/14 08:13:04;;;;;;;6.68;4.97;;;23.70;99.90;;;;;;4974878;28;20257;-73
2022/04/14 08:15:31;;;;;;;9.25;5.32;;;23.90;99.90;;;;;;4950182;29;20310;-73
2022/04/14 08:17:57;;;;;;;7.65;5.53;;;24.30;99.90;;;;;;4948687;28;20703;-72
2022/04/14 08:20:23;;;;;;;11.13;6.78;;;24.70;99.90;;;;;;4953911;29;20229;-73
2022/04/14 08:22:51;;;;;;;9.05;5.75;;;25.30;99.90;;;;;;4954496;28;20770;-73
2022/04/14 08:25:25;;;;;;;8.57;5.65;;;25.80;99.90;;;;;;4958712;29;20296;-73
2022/04/14 08:27:52;;;;;;;9.20;5.70;;;25.90;99.90;;;;;;4959204;28;20211;-77
2022/04/14 08:30:20;;;;;;;10.75;5.72;;;26.10;99.90;;;;;;4951167;29;20222;-77
2022/04/14 08:32:47;;;;;;;11.38;5.38;;;25.80;99.90;;;;;;4947690;29;20290;-73
2022/04/14 08:35:14;;;;;;;10.93;5.57;;;25.70;99.90;;;;;;4955176;28;20223;-73
2022/04/14 08:37:40;;;;;;;8.65;5.38;;;25.20;99.90;;;;;;4955959;28;20645;-72
2022/04/14 08:40:07;;;;;;;5.72;4.10;;;24.60;99.90;;;;;;4973805;28;20187;-75
2022/04/14 08:42:39;;;;;;;6.72;4.32;;;24.50;99.90;;;;;;4957315;28;20179;-73
2022/04/14 08:45:06;;;;;;;8.80;4.82;;;24.30;99.90;;;;;;4955000;29;20262;-75
2022/04/14 08:47:34;;;;;;;6.60;3.90;;;24.10;99.90;;;;;;4954387;28;20223;-73
2022/04/14 08:50:00;;;;;;;8.77;4.80;;;24.10;99.90;;;;;;4954448;29;20203;-73
2022/04/14 08:52:26;;;;;;;8.80;4.82;;;24.10;99.90;;;;;;4955344;28;20215;-74
2022/04/14 08:54:54;;;;;;;4.22;3.40;;;24.00;99.90;;;;;;4950955;28;20170;-73
2022/04/14 08:57:20;;;;;;;10.55;6.22;;;23.90;99.90;;;;;;4944791;28;20219;-73
2022/04/14 08:59:46;;;;;;;5.53;3.42;;;23.70;99.90;;;;;;4955980;28;20217;-72
2022/04/14 09:02:23;;;;;;;4.82;3.50;;;23.50;99.90;;;;;;4974175;28;20206;-72
2022/04/14 09:04:49;;;;;;;7.20;5.25;;;23.50;99.90;;;;;;4973954;28;20222;-72
2022/04/14 09:07:15;;;;;;;7.95;5.45;;;23.10;99.90;;;;;;4956834;28;20210;-74
2022/04/14 09:09:41;;;;;;;7.70;5.55;;;22.80;99.90;;;;;;4974489;28;20187;-73
2022/04/14 09:12:08;;;;;;;9.55;5.18;;;22.40;99.90;;;;;;4974450;28;20245;-72
2022/04/14 09:14:37;;;;;;;8.52;5.50;;;22.30;99.90;;;;;;4973623;28;20206;-74
2022/04/14 09:17:04;;;;;;;16.25;10.80;;;22.30;99.90;;;;;;4956392;28;20345;-74
2022/04/14 09:19:31;;;;;;;15.50;8.73;;;22.30;99.90;;;;;;4972904;28;20349;-72
2022/04/14 09:22:01;;;;;;;5.70;4.47;;;22.40;99.90;;;;;;4973627;28;20177;-73
2022/04/14 09:24:43;;;;;;;5.20;3.05;;;22.30;99.90;;;;;;4973902;28;20557;-73
2022/04/14 09:27:22;;;;;;;6.45;3.75;;;22.50;99.90;;;;;;4964844;28;20207;-73
2022/04/14 09:29:48;;;;;;;3.60;2.50;;;22.60;99.90;;;;;;4948209;29;20700;-73
2022/04/14 09:32:30;;;;;;;2.70;1.85;;;22.30;99.90;;;;;;4952964;28;20225;-72
2022/04/14 09:34:56;;;;;;;2.85;2.08;;;22.00;99.90;;;;;;4956607;28;20217;-73
2022/04/14 09:37:23;;;;;;;3.33;2.30;;;21.90;99.90;;;;;;4956225;28;20210;-73
2022/04/14 09:40:09;;;;;;;2.88;2.33;;;21.90;99.90;;;;;;4973369;28;20174;-73
2022/04/14 09:42:37;;;;;;;2.70;1.80;;;21.90;99.90;;;;;;4974789;28;20348;-73
2022/04/14 09:45:23;;;;;;;6.38;2.30;;;21.90;99.90;;;;;;4974717;28;20273;-72
2022/04/14 09:47:50;;;;;;;3.72;2.30;;;21.80;99.90;;;;;;4956023;28;20213;-72
2022/04/14 09:50:34;;;;;;;3.50;2.10;;;21.40;99.90;;;;;;4955472;28;20222;-72
2022/04/14 09:53:05;;;;;;;3.72;2.67;;;21.30;99.90;;;;;;4961034;28;21101;-75
2022/04/14 09:55:31;;;;;;;5.10;2.65;;;21.10;99.90;;;;;;4935043;29;20709;-76
2022/04/14 09:58:12;;;;;;;6.95;3.35;;;21.10;99.90;;;;;;4941104;28;20204;-75
2022/04/14 10:00:39;;;;;;;5.35;3.53;;;21.20;99.90;;;;;;4954009;29;20258;-76
2022/04/14 10:03:29;;;;;;;6.43;3.30;;;21.10;99.90;;;;;;4959721;28;20309;-74
2022/04/14 10:06:04;;;;;;;9.90;6.47;;;21.10;99.90;;;;;;4968134;28;20268;-72
2022/04/14 10:08:50;;;;;;;5.30;2.80;;;21.10;99.90;;;;;;4956109;28;20232;-74
2022/04/14 10:11:30;;;;;;;5.20;4.00;;;21.00;99.90;;;;;;4973486;28;20648;-75
2022/04/14 10:14:18;;;;;;;4.88;3.88;;;21.00;99.90;;;;;;4976181;28;20713;-75
2022/04/14 10:16:46;;;;;;;7.78;3.95;;;21.00;99.90;;;;;;4939420;29;20227;-76
2022/04/14 10:19:13;;;;;;;5.43;3.30;;;20.90;99.90;;;;;;4951651;28;20218;-76
2022/04/14 10:21:39;;;;;;;4.88;3.45;;;20.50;99.90;;;;;;4973361;28;20186;-75
2022/04/14 10:24:06;;;;;;;9.45;6.47;;;20.30;99.90;;;;;;4972367;28;20252;-74
2022/04/14 10:26:34;;;;;;;5.18;2.42;;;20.40;99.90;;;;;;4965179;28;20211;-74
2022/04/14 10:29:00;;;;;;;4.35;3.20;;;20.50;99.90;;;;;;4954748;28;20261;-76
2022/04/14 10:31:27;;;;;;;3.75;3.10;;;20.80;99.90;;;;;;4972328;28;20206;-75
2022/04/14 10:33:53;;;;;;;5.93;2.53;;;21.20;99.90;;;;;;4961740;28;20649;-77
2022/04/14 10:36:19;;;;;;;6.72;3.13;;;21.30;99.90;;;;;;4953777;29;20238;-76
2022/04/14 10:38:47;;;;;;;5.93;4.38;;;21.40;99.90;;;;;;4952866;28;20273;-78
2022/04/14 10:41:19;;;;;;;11.25;7.28;;;21.10;99.90;;;;;;4950994;28;20206;-75
2022/04/14 10:43:46;;;;;;;7.47;3.70;;;21.00;99.90;;;;;;4972906;28;20740;-75
2022/04/14 10:46:16;;;;;;;4.30;3.00;;;20.80;99.90;;;;;;4973076;28;24748;-77
2022/04/14 10:48:44;;;;;;;3.65;2.40;;;20.60;99.90;;;;;;4953785;28;20258;-79
2022/04/14 10:51:28;;;;;;;5.00;2.92;;;20.60;99.90;;;;;;4953592;29;20207;-76
2022/04/14 10:54:19;;;;;;;5.60;2.97;;;20.50;99.90;;;;;;4972919;28;20562;-77
2022/04/14 10:56:47;;;;;;;3.25;2.10;;;20.30;99.90;;;;;;4947191;29;20207;-76
2022/04/14 10:59:14;;;;;;;6.60;2.92;;;20.30;99.90;;;;;;4952314;28;20739;-76
2022/04/14 11:01:45;;;;;;;3.20;2.45;;;20.30;99.90;;;;;;4955375;28;20214;-75
2022/04/14 11:04:23;;;;;;;4.13;2.65;;;20.40;99.90;;;;;;4972559;28;20220;-77
2022/04/14 11:06:54;;;;;;;2.13;1.50;;;20.60;99.90;;;;;;4973186;28;20727;-77
2022/04/14 11:09:38;;;;;;;3.55;2.00;;;20.60;99.90;;;;;;4971613;28;20265;-76
2022/04/14 11:12:07;;;;;;;4.15;1.92;;;20.30;99.90;;;;;;4972987;28;20226;-76
2022/04/14 11:14:37;;;;;;;4.53;3.03;;;20.00;99.90;;;;;;4961833;28;20219;-74
2022/04/14 11:17:03;;;;;;;6.05;4.15;;;19.80;99.90;;;;;;4954755;28;20697;-75
2022/04/14 11:19:30;;;;;;;4.38;2.53;;;19.50;99.90;;;;;;4952787;29;20221;-75
2022/04/14 11:21:58;;;;;;;3.22;2.08;;;19.10;99.90;;;;;;4949996;28;20261;-74
2022/04/14 11:24:36;;;;;;;2.38;1.65;;;18.40;99.90;;;;;;4956752;28;20206;-74
2022/04/14 11:27:22;;;;;;;4.00;2.65;;;18.40;99.90;;;;;;4962182;28;20281;-74
2022/04/14 11:29:49;;;;;;;3.28;2.05;;;18.30;99.90;;;;;;4946245;29;20642;-72
2022/04/14 11:32:34;;;;;;;2.25;1.55;;;18.20;99.90;;;;;;4951948;28;20214;-74
2022/04/14 11:35:15;;;;;;;4.45;2.10;;;18.00;99.90;;;;;;4976449;28;20210;-74
2022/04/14 11:37:43;;;;;;;4.28;2.10;;;18.10;99.90;;;;;;4959053;28;20221;-74
2022/04/14 11:40:22;;;;;;;4.47;1.83;;;18.30;99.90;;;;;;4975553;28;20249;-74
2022/04/14 11:42:52;;;;;;;2.40;1.67;;;18.40;99.90;;;;;;4976119;28;20178;-74
2022/04/14 11:45:25;;;;;;;1.75;1.20;;;18.60;99.90;;;;;;4976002;28;20652;-74
2022/04/14 11:47:54;;;;;;;2.13;0.95;;;18.10;99.90;;;;;;4975815;28;20210;-74
2022/04/14 11:50:25;;;;;;;2.80;1.20;;;18.00;99.90;;;;;;4959776;28;20238;-74
2022/04/14 11:53:03;;;;;;;2.47;1.88;;;18.00;99.90;;;;;;4962519;28;20234;-74
2022/04/14 11:55:39;;;;;;;4.10;1.42;;;18.00;99.90;;;;;;4975282;28;20206;-74
2022/04/14 11:58:15;;;;;;;3.63;1.23;;;18.00;99.90;;;;;;4955703;28;20226;-74
2022/04/14 12:00:41;;;;;;;4.50;2.22;;;17.80;99.90;;;;;;4956801;29;20535;-74
2022/04/14 12:03:06;;;;;;;5.88;2.03;;;17.70;99.90;;;;;;4956443;28;20799;-76
2022/04/14 12:05:32;;;;;;;4.22;1.95;;;17.60;99.90;;;;;;4960149;28;20250;-78
2022/04/14 12:08:09;;;;;;;2.35;1.85;;;17.60;99.90;;;;;;4962867;28;20225;-75
2022/04/14 12:10:34;;;;;;;3.13;2.17;;;17.70;99.90;;;;;;4960571;28;20216;-75
2022/04/14 12:13:11;;;;;;;3.70;1.90;;;17.40;99.90;;;;;;4958507;28;20187;-75
2022/04/14 12:15:37;;;;;;;4.55;2.80;;;17.30;99.90;;;;;;4960764;28;20230;-75
2022/04/14 12:18:11;;;;;;;5.40;2.65;;;17.20;99.90;;;;;;4964215;28;20222;-74
2022/04/14 12:20:43;;;;;;;4.40;3.15;;;17.20;99.90;;;;;;4968100;28;20190;-75
2022/04/14 12:23:10;;;;;;;5.35;3.42;;;17.10;99.90;;;;;;4945928;29;20608;-73
2022/04/14 12:25:37;;;;;;;4.70;4.05;;;17.00;99.90;;;;;;4958822;29;20729;-74
2022/04/14 12:28:03;;;;;;;5.03;3.30;;;17.00;99.90;;;;;;4957593;28;20254;-74
2022/04/14 12:30:30;;;;;;;3.90;3.00;;;16.90;99.90;;;;;;4958235;28;20178;-75
2022/04/14 12:33:04;;;;;;;5.40;2.70;;;16.70;99.90;;;;;;4960908;28;20214;-76
2022/04/14 12:35:41;;;;;;;4.07;2.60;;;16.60;99.90;;;;;;4957242;28;20221;-75
2022/04/14 12:38:15;;;;;;;6.47;4.57;;;16.70;99.90;;;;;;4955492;28;20654;-75
2022/04/14 12:40:53;;;;;;;5.07;3.83;;;16.70;99.90;;;;;;4956370;28;20715;-74
2022/04/14 12:43:28;;;;;;;6.07;3.92;;;16.70;99.90;;;;;;4949983;28;20214;-75